createdAt,value
2019-06-01T00:02:13.022Z,17.33
2019-06-01T00:07:20.633Z,20.92
2019-06-01T00:12:28.373Z,18.11
2019-06-01T00:17:36.011Z,18.99
2019-06-01T00:22:43.616Z,18.89
2019-06-01T00:27:51.294Z,18.97
2019-06-01T00:32:58.903Z,18.59
2019-06-01T00:38:06.514Z,21.05
2019-06-01T00:43:14.204Z,19.91
2019-06-01T00:48:21.817Z,17.98
2019-06-01T00:53:29.517Z,17.90
2019-06-01T00:58:37.174Z,17.15
2019-06-01T01:03:45.951Z,17.34
2019-06-01T01:08:52.982Z,17.49
2019-06-01T01:13:59.307Z,17.21
2019-06-01T01:19:06.896Z,17.23
2019-06-01T01:24:14.513Z,18.84
2019-06-01T01:29:22.110Z,17.26
2019-06-01T01:34:29.779Z,17.32
2019-06-01T01:39:37.369Z,19.68
2019-06-01T01:44:45.039Z,23.74
2019-06-01T01:49:52.654Z,19.77
2019-06-01T01:55:00.273Z,18.55
2019-06-01T02:00:07.878Z,17.56
2019-06-01T02:05:15.593Z,16.81
2019-06-01T02:10:23.193Z,17.25
2019-06-01T02:15:30.987Z,17.28
2019-06-01T02:20:38.607Z,16.68
2019-06-01T02:25:46.214Z,16.88
2019-06-01T02:30:54.016Z,16.27
2019-06-01T02:36:03.067Z,16.96
2019-06-01T02:41:08.100Z,18.71
2019-06-01T02:46:15.741Z,16.50
2019-06-01T02:51:23.344Z,16.28
2019-06-01T02:56:32.081Z,18.41
2019-06-01T03:01:56.077Z,18.04
2019-06-01T03:06:46.866Z,18.03
2019-06-01T03:11:54.490Z,15.66
2019-06-01T03:17:02.129Z,15.74
2019-06-01T03:22:09.730Z,18.15
2019-06-01T03:27:17.354Z,15.23
2019-06-01T03:32:36.015Z,19.05
2019-06-01T03:37:32.106Z,16.19
2019-06-01T03:42:39.744Z,17.58
2019-06-01T03:47:47.341Z,17.62
2019-06-01T03:52:55.037Z,17.75
2019-06-01T03:58:02.978Z,17.71
2019-06-01T04:03:11.156Z,17.11
2019-06-01T04:08:17.433Z,17.60
2019-06-01T04:13:25.256Z,18.16
2019-06-01T04:18:32.876Z,17.31
2019-06-01T04:23:40.553Z,19.85
2019-06-01T04:28:48.161Z,16.46
2019-06-01T04:33:55.773Z,15.87
2019-06-01T04:39:03.482Z,15.61
2019-06-01T04:44:12.167Z,15.40
2019-06-01T04:49:18.173Z,15.23
2019-06-01T04:54:25.901Z,14.12
2019-06-01T04:59:33.531Z,14.35
2019-06-01T05:04:43.555Z,14.13
2019-06-01T05:09:48.461Z,14.64
2019-06-01T05:14:56.141Z,13.16
2019-06-01T05:20:03.763Z,13.14
2019-06-01T05:25:12.239Z,15.35
2019-06-01T05:30:18.562Z,13.56
2019-06-01T05:35:26.181Z,14.08
2019-06-01T05:40:33.876Z,14.86
2019-06-01T05:45:41.469Z,16.11
2019-06-01T05:50:49.163Z,14.73
2019-06-01T05:55:56.777Z,14.49
2019-06-01T06:01:04.543Z,14.44
2019-06-01T06:06:12.154Z,14.15
2019-06-01T06:11:19.777Z,14.26
2019-06-01T06:16:27.377Z,12.24
2019-06-01T06:21:35.033Z,12.27
2019-06-01T06:26:42.637Z,11.08
2019-06-01T06:31:50.532Z,10.25
2019-06-01T06:36:58.133Z,9.77
2019-06-01T06:42:05.785Z,8.92
2019-06-01T06:47:14.606Z,8.34
2019-06-01T06:52:21.537Z,7.54
2019-06-01T06:57:27.716Z,7.67
2019-06-01T07:02:35.365Z,6.43
2019-06-01T07:07:42.996Z,6.21
2019-06-01T07:12:50.635Z,5.93
2019-06-01T07:17:58.264Z,6.33
2019-06-01T07:23:05.927Z,6.47
2019-06-01T07:28:13.545Z,6.52
2019-06-01T07:33:22.297Z,6.70
2019-06-01T07:38:28.930Z,6.61
2019-06-01T07:43:35.485Z,6.76
2019-06-01T07:48:43.101Z,6.92
2019-06-01T07:53:50.697Z,7.34
2019-06-01T07:58:58.537Z,8.24
2019-06-01T08:04:06.146Z,8.74
2019-06-01T08:09:13.786Z,8.79
2019-06-01T08:14:22.514Z,8.11
2019-06-01T08:19:28.553Z,8.01
2019-06-01T08:24:36.162Z,7.89
2019-06-01T08:29:43.790Z,8.09
2019-06-01T08:35:07.394Z,8.60
2019-06-01T08:39:59.369Z,8.82
2019-06-01T08:45:05.798Z,8.13
2019-06-01T08:50:13.401Z,8.21
2019-06-01T08:55:21.034Z,8.60
2019-06-01T09:00:28.636Z,7.91
2019-06-01T09:05:36.337Z,7.40
2019-06-01T09:10:43.967Z,7.02
2019-06-01T09:15:51.578Z,7.31
2019-06-01T09:20:59.181Z,8.04
2019-06-01T09:26:06.830Z,8.29
2019-06-01T09:31:14.477Z,8.13
2019-06-01T09:36:22.105Z,8.58
2019-06-01T09:41:30.504Z,8.24
2019-06-01T09:46:37.394Z,7.86
2019-06-01T09:51:44.067Z,8.64
2019-06-01T09:56:51.671Z,7.69
2019-06-01T10:01:59.262Z,7.24
2019-06-01T10:07:06.860Z,7.09
2019-06-01T10:12:14.483Z,7.92
2019-06-01T10:17:22.104Z,5.90
2019-06-01T10:22:30.881Z,6.35
2019-06-01T10:27:36.901Z,5.68
2019-06-01T10:32:44.505Z,5.97
2019-06-01T10:37:52.123Z,6.15
2019-06-01T10:42:59.729Z,5.85
2019-06-01T10:48:07.375Z,6.40
2019-06-01T10:53:14.960Z,5.40
2019-06-01T10:58:22.772Z,5.12
2019-06-01T11:03:30.432Z,5.77
2019-06-01T11:08:39.014Z,4.98
2019-06-01T11:13:45.158Z,4.85
2019-06-01T11:18:52.769Z,4.64
2019-06-01T11:24:00.389Z,5.07
2019-06-01T11:29:07.981Z,4.79
2019-06-01T11:34:15.649Z,4.90
2019-06-01T11:39:23.217Z,4.82
2019-06-01T11:44:30.875Z,4.65
2019-06-01T11:49:38.693Z,4.09
2019-06-01T11:54:46.113Z,5.21
2019-06-01T11:59:53.713Z,4.21
2019-06-01T12:05:01.362Z,4.20
2019-06-01T12:10:08.960Z,3.82
2019-06-01T12:15:16.615Z,3.62
2019-06-01T12:20:24.222Z,3.27
2019-06-01T12:25:31.877Z,3.31
2019-06-01T12:30:39.608Z,3.36
2019-06-01T12:35:48.165Z,3.46
2019-06-01T12:40:54.285Z,3.43
2019-06-01T12:46:07.235Z,3.13
2019-06-01T12:51:09.030Z,3.52
2019-06-01T12:56:17.529Z,3.35
2019-06-01T13:01:25.171Z,2.89
2019-06-01T13:06:32.849Z,3.17
2019-06-01T13:11:41.295Z,3.09
2019-06-01T13:16:58.598Z,3.17
2019-06-01T13:21:54.934Z,3.17
2019-06-01T13:27:02.586Z,3.30
2019-06-01T13:32:10.230Z,2.98
2019-06-01T13:37:17.826Z,2.72
2019-06-01T13:42:25.477Z,2.91
2019-06-01T13:47:33.080Z,3.36
2019-06-01T13:52:40.721Z,3.25
2019-06-01T13:57:48.407Z,3.12
2019-06-01T14:03:00.024Z,3.23
2019-06-01T14:07:57.619Z,3.03
2019-06-01T14:13:05.578Z,3.13
2019-06-01T14:18:12.386Z,3.16
2019-06-01T14:23:20.059Z,3.01
2019-06-01T14:28:27.681Z,3.28
2019-06-01T14:33:35.301Z,3.33
2019-06-01T14:38:46.855Z,3.27
2019-06-01T14:43:51.150Z,3.14
2019-06-01T14:48:57.764Z,3.21
2019-06-01T14:54:04.376Z,3.24
2019-06-01T14:59:11.995Z,3.20
2019-06-01T15:04:19.637Z,3.32
2019-06-01T15:09:27.238Z,4.64
2019-06-01T15:14:34.892Z,3.25
2019-06-01T15:19:42.497Z,3.22
2019-06-01T15:24:50.402Z,3.21
2019-06-01T15:29:57.242Z,3.20
2019-06-01T15:35:04.905Z,6.42
2019-06-01T15:40:12.497Z,3.32
2019-06-01T15:45:20.126Z,3.48
2019-06-01T15:50:27.733Z,3.53
2019-06-01T15:55:35.358Z,5.51
2019-06-01T16:00:42.954Z,3.78
2019-06-01T16:05:50.633Z,3.21
2019-06-01T16:11:02.790Z,3.51
2019-06-01T16:16:05.435Z,6.33
2019-06-01T16:21:13.018Z,3.37
2019-06-01T16:26:20.660Z,8.53
2019-06-01T16:31:28.282Z,18.03
2019-06-01T16:36:35.924Z,3.73
2019-06-01T16:41:43.527Z,3.58
2019-06-01T16:46:51.164Z,3.76
2019-06-01T16:51:59.223Z,3.89
2019-06-01T16:57:07.245Z,3.56
2019-06-01T17:02:13.077Z,3.88
2019-06-01T17:07:20.717Z,3.70
2019-06-01T17:12:28.346Z,3.54
2019-06-01T17:17:35.993Z,4.02
2019-06-01T17:22:43.598Z,3.58
2019-06-01T17:27:51.241Z,3.67
2019-06-01T17:33:00.204Z,3.78
2019-06-01T17:38:07.294Z,3.88
2019-06-01T17:43:13.555Z,3.97
2019-06-01T17:48:26.502Z,3.79
2019-06-01T17:53:28.129Z,3.98
2019-06-01T17:58:35.733Z,6.99
2019-06-01T18:03:43.417Z,6.40
2019-06-01T18:08:51.017Z,4.92
2019-06-01T18:13:58.673Z,5.17
2019-06-01T18:19:06.376Z,4.66
2019-06-01T18:24:14.175Z,4.78
2019-06-01T18:29:21.785Z,4.87
2019-06-01T18:34:29.396Z,7.38
2019-06-01T18:39:37.006Z,7.14
2019-06-01T18:44:44.616Z,5.64
2019-06-01T18:49:52.214Z,4.44
2019-06-01T18:54:59.826Z,4.40
2019-06-01T19:00:10.528Z,4.59
2019-06-01T19:05:15.554Z,4.33
2019-06-01T19:10:21.761Z,4.13
2019-06-01T19:15:29.429Z,4.30
2019-06-01T19:20:37.041Z,4.37
2019-06-01T19:25:44.669Z,4.37
2019-06-01T19:30:52.264Z,4.78
2019-06-01T19:35:59.888Z,4.35
2019-06-01T19:41:07.504Z,4.73
2019-06-01T19:46:15.889Z,4.77
2019-06-01T19:51:22.195Z,4.96
2019-06-01T19:56:29.817Z,4.88
2019-06-01T20:01:37.404Z,5.11
2019-06-01T20:06:45.013Z,5.20
2019-06-01T20:12:01.923Z,5.13
2019-06-01T20:16:59.805Z,5.54
2019-06-01T20:22:07.406Z,5.57
2019-06-01T20:27:15.315Z,5.66
2019-06-01T20:32:22.635Z,6.72
2019-06-01T20:37:30.320Z,7.63
2019-06-01T20:42:37.947Z,7.97
2019-06-01T20:47:45.585Z,9.51
2019-06-01T20:52:53.209Z,8.02
2019-06-01T20:58:00.828Z,10.15
2019-06-01T21:03:08.465Z,9.44
2019-06-01T21:08:16.147Z,9.41
2019-06-01T21:13:24.154Z,8.27
2019-06-01T21:18:30.849Z,8.89
2019-06-01T21:23:38.479Z,8.79
2019-06-01T21:28:46.090Z,8.92
2019-06-01T21:33:53.703Z,9.58
2019-06-01T21:39:01.321Z,9.49
2019-06-01T21:44:08.925Z,9.58
2019-06-01T21:49:17.575Z,10.15
2019-06-01T21:54:24.590Z,10.32
2019-06-01T21:59:30.829Z,11.34
2019-06-01T22:04:38.452Z,10.85
2019-06-01T22:09:46.164Z,11.17
2019-06-01T22:14:53.779Z,10.77
2019-06-01T22:20:01.413Z,10.38
2019-06-01T22:25:09.012Z,10.52
2019-06-01T22:30:16.622Z,11.29
2019-06-01T22:35:24.747Z,11.94
2019-06-01T22:40:31.504Z,13.31
2019-06-01T22:45:38.993Z,12.93
2019-06-01T22:50:46.606Z,13.02
2019-06-01T22:55:54.197Z,13.23
2019-06-01T23:01:01.822Z,12.94
2019-06-01T23:06:09.449Z,14.13
2019-06-01T23:11:17.050Z,13.40
2019-06-01T23:16:25.599Z,11.92
2019-06-01T23:21:32.066Z,12.41
2019-06-01T23:26:39.818Z,18.08
2019-06-01T23:31:47.425Z,20.25
2019-06-01T23:36:55.081Z,23.94
2019-06-01T23:42:02.684Z,21.15
2019-06-01T23:47:10.296Z,19.48
2019-06-01T23:52:17.901Z,18.69
2019-06-01T23:57:25.776Z,18.46
